Alma, Mississippi
Current Conditions -  °F | °C
As of 12:53 AM on Saturday 20 Dec 2014 (Local Time) from KTUP Reporting Station
Overcast Overcast  
Wind Chill:   Ceiling: 10000
Heat Index:   Visibility: 10mi
Dew Point:   Wind: 7mph
Humidity: 82%   Direction: 20°NNE
Pressure: 30.2"   Gusts: NA
Location:  34.433°N, 88.7018°W
Report Text: KTUP 200653Z AUTO 02006KT 10SM OVC100 04/01 A3020 RMK AO2 SLP228 T00390011
Loading
Personal Weather Stations






























Interactive Weather Map New forecast layout! Learn more

10-Day Weather Forecast

Advertisements
Track Severe Weather on mobile